ダカール の空港の天気 - METARとTAF

レオポール・セダール・サンゴール国際空港 ( GOOY / DKR ) - セネガル ダカール
飛行場実況気象(Metar)
観測時間10/16 07:00 GMT (10/16 07:00 UTC)
風向・風速静穏 0m/s
視程10km以上
天気現象
なし
気温24℃
湿度94%
気圧1012hPa
METARGOOY 160700Z 00000KT CAVOK 24/23 Q1012
過去の天気等 Google飛行場航空写真 Wunderground天気予報

過去48時間のMETAR

飛行場予報(TAF)
発表時間: 10/16 05:30 GMT (10/16 05:30 UTC)
予報対象時間: 16日6時 GMT ~ 17日12時 GMT
風向・風速北北東 3m/s
視程10km以上
全天の4割程度の雲 雲底高度 400m
TAF GOOY 160530Z 1606/1712 03006KT 9999 SCT013